Weather at Cape Town International Airport

Public forecast

Using degrees Celsius for public forecast. Weather courtesy of forecast.io.

Current aviation weather report (METAR) for Cape Town International Airport

Retrieved 2021/09/23 14:00 UTC (8 minutes ago):

FACT 231400Z 31013KT 9999 FEW025 18/13 Q1015 NOSIG

Aviation forecast (TAF) for Cape Town International Airport

Retrieved 2021/09/23 12:00 UTC (2 hours ago):

TAF FACT 231000Z 2312/2418 33020KT 9999 FEW020 TX21/2312Z TN13/2405Z FM231300 35016KT 9999 SCT010 BKN020 BECMG 2316/2318 35006KT FM240900 35008KT 9999 FEW035